createdAt,value
2019-05-13T00:00:04.962Z,32.5124
2019-05-13T00:00:14.387Z,32.6131
2019-05-13T00:00:23.621Z,32.6619
2019-05-13T00:00:34.472Z,32.5292
2019-05-13T00:00:45.405Z,32.5994
2019-05-13T00:00:54.413Z,32.6131
2019-05-13T00:01:07.114Z,32.5536
2019-05-13T00:01:17.156Z,32.6436
2019-05-13T00:01:26.331Z,32.6253
2019-05-13T00:01:34.482Z,32.7779
2019-05-13T00:01:44.431Z,32.8191
2019-05-13T00:01:54.023Z,32.6223
2019-05-13T00:02:04.795Z,32.6894
2019-05-13T00:02:13.443Z,32.6116
2019-05-13T00:02:24.434Z,32.6223
2019-05-13T00:02:34.506Z,32.6589
2019-05-13T00:02:47.392Z,32.4987
2019-05-13T00:02:54.445Z,32.5307
2019-05-13T00:03:04.413Z,32.6268
2019-05-13T00:03:13.706Z,32.5399
2019-05-13T00:03:24.408Z,32.5383
2019-05-13T00:03:33.559Z,32.6268
2019-05-13T00:03:44.410Z,32.6299
2019-05-13T00:03:54.165Z,32.4880
2019-05-13T00:04:04.396Z,32.4300
2019-05-13T00:04:14.063Z,32.3919
2019-05-13T00:04:24.402Z,32.4102
2019-05-13T00:04:33.911Z,32.5154
2019-05-13T00:04:44.203Z,32.4987
2019-05-13T00:04:53.412Z,32.4331
2019-05-13T00:05:03.887Z,32.4102
2019-05-13T00:05:14.839Z,32.4712
2019-05-13T00:05:24.413Z,32.4697
2019-05-13T00:05:35.402Z,32.4697
2019-05-13T00:05:45.289Z,32.4712
2019-05-13T00:05:56.460Z,32.4254
2019-05-13T00:06:04.177Z,32.3980
2019-05-13T00:06:16.313Z,32.4392
2019-05-13T00:06:23.818Z,32.5566
2019-05-13T00:06:34.583Z,32.4849
2019-05-13T00:06:51.408Z,32.5399
2019-05-13T00:06:55.167Z,32.5719
2019-05-13T00:07:04.625Z,32.4743
2019-05-13T00:07:14.440Z,32.4300
2019-05-13T00:07:23.985Z,32.4285
2019-05-13T00:07:34.413Z,32.4010
2019-05-13T00:07:44.001Z,32.3842
2019-05-13T00:07:54.418Z,32.4285
2019-05-13T00:08:03.760Z,32.4666
2019-05-13T00:08:14.434Z,32.5978
2019-05-13T00:08:25.959Z,32.6040
2019-05-13T00:08:34.407Z,32.7810
2019-05-13T00:08:44.401Z,32.8084
2019-05-13T00:08:54.466Z,32.7687
2019-05-13T00:09:03.561Z,32.6680
2019-05-13T00:09:14.141Z,32.6024
2019-05-13T00:09:24.492Z,32.4254
2019-05-13T00:09:33.896Z,32.4834
2019-05-13T00:09:44.262Z,32.6268
2019-05-13T00:09:54.523Z,32.5856
2019-05-13T00:10:04.353Z,32.6497
2019-05-13T00:10:14.917Z,32.6665
2019-05-13T00:10:24.348Z,32.6665
2019-05-13T00:10:34.995Z,32.6955
2019-05-13T00:10:46.403Z,32.5383
2019-05-13T00:10:54.424Z,32.5444
2019-05-13T00:11:05.419Z,32.4422
2019-05-13T00:11:13.733Z,32.4559
2019-05-13T00:11:27.033Z,32.4804
2019-05-13T00:11:34.595Z,32.5292
2019-05-13T00:11:44.417Z,32.4712
2019-05-13T00:11:53.996Z,32.4422
2019-05-13T00:12:04.971Z,32.4071
2019-05-13T00:12:13.820Z,32.5399
2019-05-13T00:12:24.410Z,32.4529
2019-05-13T00:12:35.473Z,32.4987
2019-05-13T00:12:44.856Z,32.4117
2019-05-13T00:12:54.023Z,32.3842
2019-05-13T00:13:04.799Z,32.3980
2019-05-13T00:13:14.682Z,32.3934
2019-05-13T00:13:24.397Z,32.4941
2019-05-13T00:13:33.833Z,32.5399
2019-05-13T00:13:44.499Z,32.4651
2019-05-13T00:13:53.826Z,32.4834
2019-05-13T00:14:04.423Z,32.4971
2019-05-13T00:14:13.569Z,32.5566
2019-05-13T00:14:24.422Z,32.4804
2019-05-13T00:14:34.413Z,32.4804
2019-05-13T00:14:44.411Z,32.4697
2019-05-13T00:14:54.015Z,32.4849
2019-05-13T00:15:04.422Z,32.3842
2019-05-13T00:15:14.353Z,32.4147
2019-05-13T00:15:24.276Z,32.4102
2019-05-13T00:15:34.201Z,32.4254
2019-05-13T00:15:45.295Z,32.4010
2019-05-13T00:15:55.412Z,32.3140
2019-05-13T00:16:04.404Z,32.3232
2019-05-13T00:16:18.890Z,32.5811
2019-05-13T00:16:23.566Z,32.6040
2019-05-13T00:16:35.405Z,32.6940
2019-05-13T00:16:44.891Z,32.6406
2019-05-13T00:16:53.792Z,32.5292
2019-05-13T00:17:04.259Z,32.4697
2019-05-13T00:17:14.712Z,32.4392
2019-05-13T00:17:23.760Z,32.4605
2019-05-13T00:17:34.413Z,32.3842
2019-05-13T00:17:44.729Z,32.3842
2019-05-13T00:17:54.516Z,32.4147
2019-05-13T00:18:04.127Z,32.4804
2019-05-13T00:18:14.652Z,32.5109
2019-05-13T00:18:23.668Z,32.5154
2019-05-13T00:18:34.398Z,32.5261
2019-05-13T00:18:44.426Z,32.4788
2019-05-13T00:18:54.421Z,32.5536
2019-05-13T00:19:05.424Z,32.5399
2019-05-13T00:19:14.259Z,32.4971
2019-05-13T00:19:23.455Z,32.4697
2019-05-13T00:19:35.289Z,32.4102
2019-05-13T00:19:44.261Z,32.3980
2019-05-13T00:19:54.414Z,32.4071
2019-05-13T00:20:06.320Z,32.4529
2019-05-13T00:20:14.063Z,32.4697
2019-05-13T00:20:25.413Z,32.4575
2019-05-13T00:20:34.065Z,32.3934
2019-05-13T00:20:44.576Z,32.4102
2019-05-13T00:20:54.208Z,32.3705
2019-05-13T00:21:04.432Z,32.4834
2019-05-13T00:21:14.076Z,32.4529
2019-05-13T00:21:24.402Z,32.4254
2019-05-13T00:21:33.995Z,32.4102
2019-05-13T00:21:44.568Z,32.4239
2019-05-13T00:21:54.648Z,32.4834
2019-05-13T00:22:04.399Z,32.5521
2019-05-13T00:22:14.045Z,32.5933
2019-05-13T00:22:24.428Z,32.5536
2019-05-13T00:22:33.977Z,32.4651
2019-05-13T00:22:45.002Z,32.5246
2019-05-13T00:22:53.988Z,32.5109
2019-05-13T00:23:04.429Z,32.5658
2019-05-13T00:23:14.250Z,32.5216
2019-05-13T00:23:24.423Z,32.5521
2019-05-13T00:23:34.018Z,32.4697
2019-05-13T00:23:44.255Z,32.4559
2019-05-13T00:23:53.568Z,32.4666
2019-05-13T00:24:04.435Z,32.3980
2019-05-13T00:24:13.833Z,32.4422
2019-05-13T00:24:24.437Z,32.4239
2019-05-13T00:24:34.361Z,32.5246
2019-05-13T00:24:44.472Z,32.5078
2019-05-13T00:24:55.428Z,32.5078
2019-05-13T00:25:04.043Z,32.5063
2019-05-13T00:25:15.422Z,32.5383
2019-05-13T00:25:24.235Z,32.5399
2019-05-13T00:25:38.918Z,32.4971
2019-05-13T00:25:44.457Z,32.4529
2019-05-13T00:25:54.672Z,32.4392
2019-05-13T00:26:03.961Z,32.4117
2019-05-13T00:26:14.427Z,32.4788
2019-05-13T00:26:24.478Z,32.4834
2019-05-13T00:26:34.402Z,32.5246
2019-05-13T00:26:44.420Z,32.5948
2019-05-13T00:26:54.402Z,32.5521
2019-05-13T00:27:04.052Z,32.5338
2019-05-13T00:27:14.421Z,32.5536
2019-05-13T00:27:23.581Z,32.4651
2019-05-13T00:27:34.422Z,32.4666
2019-05-13T00:27:44.346Z,32.4834
2019-05-13T00:27:54.436Z,32.4788
2019-05-13T00:28:04.176Z,32.5261
2019-05-13T00:28:14.720Z,32.5673
2019-05-13T00:28:23.563Z,32.5399
2019-05-13T00:28:34.270Z,32.4849
2019-05-13T00:28:44.373Z,32.4941
2019-05-13T00:28:54.416Z,32.5795
2019-05-13T00:29:04.333Z,32.5383
2019-05-13T00:29:14.420Z,32.4392
2019-05-13T00:29:23.555Z,32.4971
2019-05-13T00:29:35.272Z,32.4605
2019-05-13T00:29:45.435Z,32.3659
2019-05-13T00:29:54.416Z,32.4102
2019-05-13T00:30:06.255Z,32.4071
2019-05-13T00:30:14.573Z,32.5154
2019-05-13T00:30:24.432Z,32.4559
2019-05-13T00:30:34.179Z,32.4102
2019-05-13T00:30:44.715Z,32.4300
2019-05-13T00:30:54.305Z,32.3552
2019-05-13T00:31:04.404Z,32.4529
2019-05-13T00:31:13.848Z,32.5383
2019-05-13T00:31:24.415Z,32.4620
2019-05-13T00:31:33.667Z,32.4895
2019-05-13T00:31:44.439Z,32.4392
2019-05-13T00:31:54.035Z,32.4971
2019-05-13T00:32:04.794Z,32.4788
2019-05-13T00:32:13.566Z,32.5063
2019-05-13T00:32:24.427Z,32.6497
2019-05-13T00:32:33.737Z,32.6680
2019-05-13T00:32:44.665Z,32.5490
2019-05-13T00:32:54.569Z,32.5536
2019-05-13T00:33:04.411Z,32.5566
2019-05-13T00:33:13.989Z,32.4788
2019-05-13T00:33:24.368Z,32.4834
2019-05-13T00:33:34.409Z,32.4971
2019-05-13T00:33:44.577Z,32.4346
2019-05-13T00:33:53.401Z,32.5628
2019-05-13T00:34:05.335Z,32.5887
2019-05-13T00:34:15.408Z,32.7077
2019-05-13T00:34:24.518Z,32.6497
2019-05-13T00:34:36.331Z,32.7230
2019-05-13T00:34:46.017Z,32.6070
2019-05-13T00:34:56.372Z,32.5383
2019-05-13T00:35:03.942Z,32.5490
2019-05-13T00:35:14.467Z,32.5948
2019-05-13T00:35:23.448Z,32.5383
2019-05-13T00:35:34.414Z,32.5353
2019-05-13T00:35:44.205Z,32.5795
2019-05-13T00:35:54.418Z,32.6223
2019-05-13T00:36:04.045Z,32.5795
2019-05-13T00:36:14.426Z,32.6177
2019-05-13T00:36:24.329Z,32.6345
2019-05-13T00:36:34.417Z,32.6406
2019-05-13T00:36:44.515Z,32.5292
2019-05-13T00:37:07.798Z,32.5673
2019-05-13T00:37:10.787Z,32.4941
2019-05-13T00:37:14.646Z,32.5628
2019-05-13T00:37:24.495Z,32.6207
2019-05-13T00:37:33.420Z,32.5795
2019-05-13T00:37:44.401Z,32.4666
2019-05-13T00:37:54.408Z,32.4620
2019-05-13T00:38:04.023Z,32.4926
2019-05-13T00:38:14.077Z,32.6070
2019-05-13T00:38:24.658Z,32.6085
2019-05-13T00:38:34.414Z,32.6223
2019-05-13T00:38:43.998Z,32.5383
2019-05-13T00:38:55.304Z,32.5109
2019-05-13T00:39:05.391Z,32.4559
2019-05-13T00:39:15.283Z,32.4102
2019-05-13T00:39:26.271Z,32.4987
2019-05-13T00:39:33.782Z,32.4834
2019-05-13T00:39:45.416Z,32.5246
2019-05-13T00:39:54.323Z,32.5109
2019-05-13T00:40:08.425Z,32.4987
2019-05-13T00:40:14.378Z,32.4422
2019-05-13T00:40:24.422Z,32.3934
2019-05-13T00:40:34.953Z,32.4392
2019-05-13T00:40:44.577Z,32.4697
2019-05-13T00:40:54.514Z,32.4529
2019-05-13T00:41:04.419Z,32.4651
2019-05-13T00:41:14.222Z,32.4666
2019-05-13T00:41:24.544Z,32.5109
2019-05-13T00:41:33.824Z,32.5292
2019-05-13T00:41:44.388Z,32.6497
2019-05-13T00:41:53.404Z,32.6390
2019-05-13T00:42:04.427Z,32.5658
2019-05-13T00:42:14.252Z,32.5246
2019-05-13T00:42:24.552Z,32.5399
2019-05-13T00:42:35.413Z,32.4651
2019-05-13T00:42:44.501Z,32.5246
2019-05-13T00:42:54.583Z,32.4971
2019-05-13T00:43:04.419Z,32.4834
2019-05-13T00:43:14.532Z,32.4788
2019-05-13T00:43:24.621Z,32.5216
2019-05-13T00:43:35.405Z,32.4971
2019-05-13T00:43:44.612Z,32.4529
2019-05-13T00:43:56.415Z,32.4804
2019-05-13T00:44:03.950Z,32.4559
2019-05-13T00:44:16.272Z,32.4620
2019-05-13T00:44:24.430Z,32.4788
2019-05-13T00:44:34.413Z,32.5658
2019-05-13T00:44:44.384Z,32.5490
2019-05-13T00:44:54.442Z,32.5109
2019-05-13T00:45:04.071Z,32.4620
2019-05-13T00:45:14.771Z,32.5765
2019-05-13T00:45:24.501Z,32.6070
2019-05-13T00:45:34.426Z,32.5078
2019-05-13T00:45:44.342Z,32.4788
2019-05-13T00:45:54.434Z,32.5261
2019-05-13T00:46:07.418Z,32.4254
2019-05-13T00:46:14.437Z,32.4376
2019-05-13T00:46:28.032Z,32.4926
2019-05-13T00:46:34.424Z,32.4941
2019-05-13T00:46:45.432Z,32.5109
2019-05-13T00:46:54.428Z,32.5216
2019-05-13T00:47:04.433Z,32.5765
2019-05-13T00:47:14.440Z,32.6070
2019-05-13T00:47:24.443Z,32.5063
2019-05-13T00:47:34.425Z,32.5338
2019-05-13T00:47:46.292Z,32.5261
2019-05-13T00:47:53.739Z,32.5444
2019-05-13T00:48:05.399Z,32.5948
2019-05-13T00:48:14.341Z,32.5353
2019-05-13T00:48:29.806Z,32.4971
2019-05-13T00:48:33.628Z,32.5383
2019-05-13T00:48:44.400Z,32.5216
2019-05-13T00:48:54.096Z,32.4971
2019-05-13T00:49:04.855Z,32.5353
2019-05-13T00:49:13.515Z,32.5750
2019-05-13T00:49:24.976Z,32.6177
2019-05-13T00:49:34.501Z,32.5978
2019-05-13T00:49:44.405Z,32.4941
2019-05-13T00:49:54.063Z,32.3919
2019-05-13T00:50:04.408Z,32.4743
2019-05-13T00:50:14.348Z,32.5628
2019-05-13T00:50:24.404Z,32.6482
2019-05-13T00:50:33.674Z,32.6635
2019-05-13T00:50:44.541Z,32.6314
2019-05-13T00:50:54.470Z,32.6497
2019-05-13T00:51:03.795Z,32.5948
2019-05-13T00:51:14.099Z,32.5673
2019-05-13T00:51:24.501Z,32.5200
2019-05-13T00:51:34.404Z,32.5933
2019-05-13T00:51:44.660Z,32.6345
2019-05-13T00:51:53.526Z,32.7169
2019-05-13T00:52:04.431Z,32.6894
2019-05-13T00:52:16.466Z,32.7077
2019-05-13T00:52:24.402Z,32.7321
2019-05-13T00:52:36.367Z,32.7352
2019-05-13T00:52:44.783Z,32.6680
2019-05-13T00:52:54.427Z,32.5078
2019-05-13T00:53:04.248Z,32.4941
2019-05-13T00:53:14.421Z,32.4941
2019-05-13T00:53:23.806Z,32.4758
2019-05-13T00:53:35.396Z,32.5490
2019-05-13T00:53:44.184Z,32.5444
2019-05-13T00:53:54.426Z,32.5338
2019-05-13T00:54:04.309Z,32.5902
2019-05-13T00:54:14.441Z,32.5795
2019-05-13T00:54:23.764Z,32.5078
2019-05-13T00:54:34.455Z,32.5063
2019-05-13T00:54:44.155Z,32.6436
2019-05-13T00:54:54.188Z,32.6909
2019-05-13T00:55:04.255Z,32.5811
2019-05-13T00:55:14.943Z,32.5795
2019-05-13T00:55:23.820Z,32.5216
2019-05-13T00:55:34.683Z,32.5307
2019-05-13T00:55:44.451Z,32.5887
2019-05-13T00:55:54.465Z,32.5307
2019-05-13T00:56:04.042Z,32.5795
2019-05-13T00:56:14.426Z,32.5765
2019-05-13T00:56:25.429Z,32.6085
2019-05-13T00:56:35.442Z,32.4758
2019-05-13T00:56:48.999Z,32.4056
2019-05-13T00:56:54.791Z,32.3827
2019-05-13T00:57:06.322Z,32.4071
2019-05-13T00:57:13.458Z,32.4056
2019-05-13T00:57:24.978Z,32.4376
2019-05-13T00:57:34.151Z,32.4483
2019-05-13T00:57:45.045Z,32.4651
2019-05-13T00:57:54.101Z,32.4620
2019-05-13T00:58:04.653Z,32.5200
2019-05-13T00:58:14.188Z,32.5307
2019-05-13T00:58:24.457Z,32.6757
2019-05-13T00:58:34.165Z,32.7718
2019-05-13T00:58:44.420Z,32.7459
2019-05-13T00:58:54.153Z,32.7489
2019-05-13T00:59:04.589Z,32.6345
2019-05-13T00:59:14.173Z,32.6635
2019-05-13T00:59:24.444Z,32.6451
2019-05-13T00:59:34.042Z,32.7214
2019-05-13T00:59:44.278Z,32.7184
2019-05-13T00:59:54.408Z,32.6497
2019-05-13T01:00:04.398Z,32.5811
2019-05-13T01:00:14.388Z,32.5658
2019-05-13T01:00:24.284Z,32.5612
2019-05-13T01:00:34.112Z,32.6345
2019-05-13T01:00:44.614Z,32.6085
2019-05-13T01:00:54.753Z,32.4926
2019-05-13T01:01:05.396Z,32.6223
2019-05-13T01:01:15.412Z,32.6451
2019-05-13T01:01:25.230Z,32.6207
2019-05-13T01:01:36.455Z,32.5902
2019-05-13T01:01:44.065Z,32.6574
2019-05-13T01:01:56.538Z,32.7596
2019-05-13T01:02:03.787Z,32.6894
2019-05-13T01:02:16.439Z,32.5978
2019-05-13T01:02:25.284Z,32.6757
2019-05-13T01:02:34.414Z,32.7169
2019-05-13T01:02:44.624Z,32.8008
2019-05-13T01:02:54.400Z,32.7398
2019-05-13T01:03:04.153Z,32.6314
2019-05-13T01:03:14.437Z,32.6497
2019-05-13T01:03:26.313Z,32.6451
2019-05-13T01:03:33.941Z,32.6528
2019-05-13T01:03:44.149Z,32.5521
2019-05-13T01:03:53.416Z,32.5490
2019-05-13T01:04:03.906Z,32.5063
2019-05-13T01:04:14.537Z,32.5521
2019-05-13T01:04:23.423Z,32.4788
2019-05-13T01:04:34.128Z,32.5063
2019-05-13T01:04:44.405Z,32.6207
2019-05-13T01:04:54.434Z,32.6070
2019-05-13T01:05:04.444Z,32.5765
2019-05-13T01:05:14.857Z,32.5948
2019-05-13T01:05:24.249Z,32.4941
2019-05-13T01:05:35.436Z,32.5338
2019-05-13T01:05:44.517Z,32.5338
2019-05-13T01:05:55.258Z,32.5399
2019-05-13T01:06:06.402Z,32.4193
2019-05-13T01:06:14.410Z,32.4758
2019-05-13T01:06:25.405Z,32.5765
2019-05-13T01:06:34.108Z,32.6451
2019-05-13T01:06:46.527Z,32.6635
2019-05-13T01:06:53.898Z,32.6177
2019-05-13T01:07:04.733Z,32.5994
2019-05-13T01:07:24.799Z,32.6482
2019-05-13T01:07:28.585Z,32.6635
2019-05-13T01:07:34.166Z,32.7077
2019-05-13T01:07:44.769Z,32.6177
2019-05-13T01:07:53.783Z,32.5658
2019-05-13T01:08:04.571Z,32.5612
2019-05-13T01:08:14.503Z,32.5994
2019-05-13T01:08:24.420Z,32.7138
2019-05-13T01:08:33.830Z,32.6894
2019-05-13T01:08:44.408Z,32.7031
2019-05-13T01:08:53.673Z,32.7306
2019-05-13T01:09:04.441Z,32.7871
2019-05-13T01:09:14.438Z,32.7459
2019-05-13T01:09:24.415Z,32.7581
2019-05-13T01:09:34.230Z,32.7306
2019-05-13T01:09:44.301Z,32.7718
2019-05-13T01:09:53.572Z,32.8176
2019-05-13T01:10:04.408Z,32.8328
2019-05-13T01:10:14.319Z,32.7321
2019-05-13T01:10:24.397Z,32.6635
2019-05-13T01:10:34.563Z,32.6894
2019-05-13T01:10:45.157Z,32.7718
2019-05-13T01:10:54.432Z,32.7871
2019-05-13T01:11:04.521Z,32.8267
2019-05-13T01:11:14.279Z,32.8649
2019-05-13T01:11:24.466Z,32.6619
2019-05-13T01:11:35.416Z,32.6436
2019-05-13T01:11:44.412Z,32.6726
2019-05-13T01:11:56.383Z,32.7230
2019-05-13T01:12:04.322Z,32.6345
2019-05-13T01:12:15.404Z,32.5765
2019-05-13T01:12:23.843Z,32.6589
2019-05-13T01:12:34.636Z,32.7596
2019-05-13T01:12:44.085Z,32.7321
2019-05-13T01:12:54.411Z,32.6909
2019-05-13T01:13:04.618Z,32.6497
2019-05-13T01:13:14.432Z,32.5795
2019-05-13T01:13:23.870Z,32.5475
2019-05-13T01:13:34.422Z,32.6757
2019-05-13T01:13:43.533Z,32.6589
2019-05-13T01:13:54.419Z,32.6451
2019-05-13T01:14:04.259Z,32.7459
2019-05-13T01:14:14.532Z,32.6848
2019-05-13T01:14:23.619Z,32.7581
2019-05-13T01:14:34.515Z,32.7764
2019-05-13T01:14:43.428Z,32.6665
2019-05-13T01:14:53.534Z,32.6177
2019-05-13T01:15:04.091Z,32.6314
2019-05-13T01:15:13.680Z,32.6635
2019-05-13T01:15:24.736Z,32.7047
2019-05-13T01:15:34.718Z,32.6360
2019-05-13T01:15:44.331Z,32.6024
2019-05-13T01:15:56.512Z,32.5750
2019-05-13T01:16:03.867Z,32.6802
2019-05-13T01:16:15.353Z,32.5902
2019-05-13T01:16:25.444Z,32.5383
2019-05-13T01:16:34.408Z,32.4743
2019-05-13T01:16:48.882Z,32.4651
2019-05-13T01:16:54.374Z,32.4743
2019-05-13T01:17:05.419Z,32.5628
2019-05-13T01:17:14.218Z,32.6024
2019-05-13T01:17:24.398Z,32.5750
2019-05-13T01:17:34.023Z,32.5216
2019-05-13T01:17:44.883Z,32.5017
2019-05-13T01:17:53.569Z,32.5765
2019-05-13T01:18:04.419Z,32.6131
2019-05-13T01:18:14.315Z,32.6772
2019-05-13T01:18:24.419Z,32.6024
2019-05-13T01:18:34.079Z,32.5795
2019-05-13T01:18:44.423Z,32.5338
2019-05-13T01:18:53.892Z,32.5994
2019-05-13T01:19:04.431Z,32.6619
2019-05-13T01:19:14.486Z,32.5902
2019-05-13T01:19:24.417Z,32.6863
2019-05-13T01:19:34.285Z,32.7581
2019-05-13T01:19:44.412Z,32.8420
2019-05-13T01:19:53.811Z,32.8328
2019-05-13T01:20:04.139Z,32.7764
2019-05-13T01:20:14.489Z,32.6726
2019-05-13T01:20:24.429Z,32.6482
2019-05-13T01:20:34.447Z,32.6894
2019-05-13T01:20:43.875Z,32.6635
2019-05-13T01:20:53.859Z,32.7031
2019-05-13T01:21:04.668Z,32.7214
2019-05-13T01:21:16.312Z,32.7184
2019-05-13T01:21:24.423Z,32.7352
2019-05-13T01:21:35.433Z,32.6345
2019-05-13T01:21:43.615Z,32.5887
2019-05-13T01:21:56.404Z,32.6360
2019-05-13T01:22:03.534Z,32.5490
2019-05-13T01:22:14.418Z,32.5765
2019-05-13T01:22:23.948Z,32.5765
2019-05-13T01:22:34.529Z,32.5444
2019-05-13T01:22:44.035Z,32.5750
2019-05-13T01:22:54.403Z,32.6131
2019-05-13T01:23:03.943Z,32.5948
2019-05-13T01:23:14.435Z,32.5490
2019-05-13T01:23:24.000Z,32.5795
2019-05-13T01:23:34.577Z,32.5200
2019-05-13T01:23:44.032Z,32.6024
2019-05-13T01:23:54.489Z,32.6040
2019-05-13T01:24:03.852Z,32.6451
2019-05-13T01:24:14.698Z,32.6451
2019-05-13T01:24:24.335Z,32.6497
2019-05-13T01:24:33.913Z,32.6909
2019-05-13T01:24:44.176Z,32.6345
2019-05-13T01:24:54.200Z,32.5612
2019-05-13T01:25:04.117Z,32.6314
2019-05-13T01:25:14.551Z,32.5811
2019-05-13T01:25:24.447Z,32.6451
2019-05-13T01:25:35.471Z,32.7306
2019-05-13T01:25:45.412Z,32.6894
2019-05-13T01:25:55.341Z,32.6314
2019-05-13T01:26:05.403Z,32.6024
2019-05-13T01:26:14.160Z,32.6360
2019-05-13T01:26:26.293Z,32.6207
2019-05-13T01:26:33.705Z,32.6345
2019-05-13T01:26:44.425Z,32.6177
2019-05-13T01:26:54.120Z,32.5902
2019-05-13T01:27:04.461Z,32.6482
2019-05-13T01:27:13.954Z,32.7077
2019-05-13T01:27:24.414Z,32.6040
2019-05-13T01:27:33.525Z,32.6589
2019-05-13T01:27:44.469Z,32.7031
2019-05-13T01:27:53.766Z,32.6680
2019-05-13T01:28:04.832Z,32.6726
2019-05-13T01:28:13.606Z,32.6665
2019-05-13T01:28:24.419Z,32.5338
2019-05-13T01:28:34.410Z,32.5017
2019-05-13T01:28:44.433Z,32.6070
2019-05-13T01:28:53.637Z,32.4880
2019-05-13T01:29:04.298Z,32.5200
2019-05-13T01:29:13.651Z,32.5628
2019-05-13T01:29:28.940Z,32.6314
2019-05-13T01:29:34.406Z,32.6207
2019-05-13T01:29:44.401Z,32.5154
2019-05-13T01:29:54.923Z,32.7596
2019-05-13T01:30:04.407Z,32.6894
2019-05-13T01:30:13.605Z,32.7352
2019-05-13T01:30:25.347Z,32.5887
2019-05-13T01:30:35.474Z,32.6543
2019-05-13T01:30:44.394Z,32.7489
2019-05-13T01:30:56.329Z,32.7092
2019-05-13T01:31:04.152Z,32.6207
2019-05-13T01:31:14.422Z,32.5933
2019-05-13T01:31:24.000Z,32.5612
2019-05-13T01:31:34.513Z,32.5063
2019-05-13T01:31:43.645Z,32.5292
2019-05-13T01:31:55.307Z,32.5658
2019-05-13T01:32:04.514Z,32.5200
2019-05-13T01:32:14.414Z,32.5612
2019-05-13T01:32:23.942Z,32.5475
2019-05-13T01:32:34.422Z,32.6070
2019-05-13T01:32:44.850Z,32.5383
2019-05-13T01:32:54.419Z,32.5902
2019-05-13T01:33:04.356Z,32.6635
2019-05-13T01:33:14.663Z,32.6619
2019-05-13T01:33:23.700Z,32.6665
2019-05-13T01:33:35.925Z,32.5948
2019-05-13T01:33:44.506Z,32.5307
2019-05-13T01:33:54.424Z,32.5902
2019-05-13T01:34:04.446Z,32.5628
2019-05-13T01:34:14.428Z,32.5933
2019-05-13T01:34:24.290Z,32.6177
2019-05-13T01:34:34.043Z,32.5383
2019-05-13T01:34:44.337Z,32.5078
2019-05-13T01:34:55.345Z,32.4758
2019-05-13T01:35:04.584Z,32.5307
2019-05-13T01:35:14.963Z,32.6436
2019-05-13T01:35:26.334Z,32.7367
2019-05-13T01:35:34.537Z,32.6360
2019-05-13T01:35:45.426Z,32.5063
2019-05-13T01:35:53.859Z,32.5978
2019-05-13T01:36:06.394Z,32.6207
2019-05-13T01:36:13.560Z,32.5200
2019-05-13T01:36:24.422Z,32.5765
2019-05-13T01:36:34.039Z,32.6024
2019-05-13T01:36:44.761Z,32.6070
2019-05-13T01:36:53.676Z,32.5216
2019-05-13T01:37:04.546Z,32.5444
2019-05-13T01:37:13.435Z,32.6162
2019-05-13T01:37:38.845Z,32.6848
2019-05-13T01:37:42.302Z,32.7214
2019-05-13T01:37:45.973Z,32.6802
2019-05-13T01:37:53.828Z,32.6207
2019-05-13T01:38:04.821Z,32.6177
2019-05-13T01:38:13.624Z,32.5795
2019-05-13T01:38:24.427Z,32.5612
2019-05-13T01:38:34.046Z,32.5948
2019-05-13T01:38:44.414Z,32.6024
2019-05-13T01:38:54.116Z,32.6436
2019-05-13T01:39:04.306Z,32.7901
2019-05-13T01:39:13.857Z,32.7367
2019-05-13T01:39:24.523Z,32.6772
2019-05-13T01:39:35.406Z,32.6635
2019-05-13T01:39:43.731Z,32.5887
2019-05-13T01:39:54.045Z,32.6619
2019-05-13T01:40:05.058Z,32.6894
2019-05-13T01:40:13.650Z,32.7489
2019-05-13T01:40:24.410Z,32.7459
2019-05-13T01:40:36.275Z,32.7306
2019-05-13T01:40:45.448Z,32.7321
2019-05-13T01:40:55.411Z,32.6589
2019-05-13T01:41:04.469Z,32.7031
2019-05-13T01:41:15.430Z,32.6024
2019-05-13T01:41:24.039Z,32.6772
2019-05-13T01:41:35.410Z,32.6589
2019-05-13T01:41:43.926Z,32.7581
2019-05-13T01:41:54.404Z,32.7718
2019-05-13T01:42:03.805Z,32.8191
2019-05-13T01:42:14.425Z,32.7810
2019-05-13T01:42:24.130Z,32.6116
2019-05-13T01:42:34.412Z,32.7306
2019-05-13T01:42:44.474Z,32.8008
2019-05-13T01:42:54.409Z,32.7871
2019-05-13T01:43:03.737Z,32.7764
2019-05-13T01:43:14.659Z,32.7031
2019-05-13T01:43:24.450Z,32.6131
2019-05-13T01:43:34.393Z,32.6497
2019-05-13T01:43:44.066Z,32.5612
2019-05-13T01:43:54.361Z,32.6314
2019-05-13T01:44:03.974Z,32.6436
2019-05-13T01:44:14.415Z,32.6451
2019-05-13T01:44:24.429Z,32.7138
2019-05-13T01:44:34.470Z,32.7321
2019-05-13T01:44:43.913Z,32.7916
2019-05-13T01:44:54.027Z,32.6894
2019-05-13T01:45:04.658Z,32.6818
2019-05-13T01:45:13.814Z,32.7764
2019-05-13T01:45:24.082Z,32.6909
2019-05-13T01:45:34.041Z,32.6589
2019-05-13T01:45:44.106Z,32.7489
2019-05-13T01:45:54.425Z,32.6589
2019-05-13T01:46:04.625Z,32.6589
2019-05-13T01:46:14.426Z,32.7459
2019-05-13T01:46:25.424Z,32.7169
2019-05-13T01:46:35.411Z,32.7184
2019-05-13T01:46:45.555Z,32.7001
2019-05-13T01:46:53.772Z,32.7321
2019-05-13T01:47:04.514Z,32.6894
2019-05-13T01:47:14.035Z,32.7489
2019-05-13T01:47:24.421Z,32.7352
2019-05-13T01:47:36.998Z,32.7184
2019-05-13T01:47:44.405Z,32.6162
2019-05-13T01:47:54.424Z,32.7031
2019-05-13T01:48:07.459Z,32.6345
2019-05-13T01:48:14.131Z,32.6619
2019-05-13T01:48:24.424Z,32.6772
2019-05-13T01:48:33.482Z,32.6451
2019-05-13T01:48:44.405Z,32.6024
2019-05-13T01:48:55.937Z,32.6482
2019-05-13T01:49:04.979Z,32.7001
2019-05-13T01:49:13.796Z,32.8588
2019-05-13T01:49:24.419Z,32.8313
2019-05-13T01:49:33.809Z,32.8054
2019-05-13T01:49:44.395Z,32.7489
2019-05-13T01:49:54.293Z,32.7031
2019-05-13T01:50:04.435Z,32.6345
2019-05-13T01:50:14.261Z,32.6589
2019-05-13T01:50:24.117Z,32.7443
2019-05-13T01:50:33.751Z,32.8267
2019-05-13T01:50:44.672Z,32.7764
2019-05-13T01:50:55.406Z,32.7306
2019-05-13T01:51:03.960Z,32.8450
2019-05-13T01:51:13.916Z,32.7733
2019-05-13T01:51:23.964Z,32.7443
2019-05-13T01:51:33.550Z,32.7764
2019-05-13T01:51:45.464Z,32.8313
2019-05-13T01:51:54.161Z,32.7871
2019-05-13T01:52:05.314Z,32.8176
2019-05-13T01:52:15.411Z,32.7901
2019-05-13T01:52:24.409Z,32.6863
2019-05-13T01:52:34.329Z,32.6589
2019-05-13T01:52:44.557Z,32.6299
2019-05-13T01:52:56.384Z,32.6635
2019-05-13T01:53:04.133Z,32.6070
2019-05-13T01:53:15.406Z,32.5902
2019-05-13T01:53:24.357Z,32.6772
2019-05-13T01:53:34.410Z,32.6863
2019-05-13T01:53:44.058Z,32.7169
2019-05-13T01:53:54.421Z,32.6757
2019-05-13T01:54:04.163Z,32.6863
2019-05-13T01:54:14.446Z,32.7321
2019-05-13T01:54:24.660Z,32.7230
2019-05-13T01:54:34.414Z,32.6299
2019-05-13T01:54:44.244Z,32.7260
2019-05-13T01:54:54.483Z,32.8283
2019-05-13T01:55:04.057Z,32.8222
2019-05-13T01:55:14.783Z,32.7047
2019-05-13T01:55:24.419Z,32.6497
2019-05-13T01:55:34.455Z,32.6162
2019-05-13T01:55:44.291Z,32.6436
2019-05-13T01:55:54.423Z,32.7581
2019-05-13T01:56:04.030Z,32.8008
2019-05-13T01:56:14.411Z,32.7489
2019-05-13T01:56:23.650Z,32.7321
2019-05-13T01:56:34.428Z,32.6665
2019-05-13T01:56:44.103Z,32.6360
2019-05-13T01:56:53.648Z,32.5750
2019-05-13T01:57:04.371Z,32.6757
2019-05-13T01:57:14.258Z,32.6345
2019-05-13T01:57:23.890Z,32.5719
2019-05-13T01:57:34.413Z,32.6757
2019-05-13T01:57:44.530Z,32.6772
2019-05-13T01:57:55.399Z,32.5582
2019-05-13T01:58:05.428Z,32.5765
2019-05-13T01:58:15.220Z,32.5902
2019-05-13T01:58:25.484Z,32.5765
2019-05-13T01:58:34.126Z,32.5490
2019-05-13T01:58:45.406Z,32.5902
2019-05-13T01:58:54.157Z,32.6451
2019-05-13T01:59:04.447Z,32.5444
2019-05-13T01:59:15.170Z,32.5765
2019-05-13T01:59:24.428Z,32.5444
2019-05-13T01:59:34.687Z,32.6451
2019-05-13T01:59:44.403Z,32.6299
2019-05-13T01:59:53.876Z,32.6772
2019-05-13T02:00:04.792Z,32.6894
2019-05-13T02:00:14.244Z,32.6772
2019-05-13T02:00:24.447Z,32.6497
2019-05-13T02:00:35.406Z,32.5994
2019-05-13T02:00:44.713Z,32.7352
2019-05-13T02:00:55.307Z,32.7031